CSE4 weather

Lachute Airport
Lachute, Quebec, Canada

Public forecast

Using degrees Celsius for public forecast. Weather courtesy of forecast.io.

METAR (pilot weather report)

Closest report is Montreal International (Mirabel) Airport, 14.1 nm (26.2 km) E. Retrieved 2019/05/22 11:00 UTC (17 minutes ago):

CYMX 221100Z 00000KT 45SM SCT260 08/04 A3024 RMK CI3 SLP244

TAF (pilot weather forecast)

Closest forecast is Montreal International (Mirabel) Airport, 14.1 nm (26.2 km) E. Retrieved 2019/05/22 06:42 UTC (5 hours ago):

TAF TAF CYMX 220538Z 2206/2306 35008KT P6SM SKC BECMG 2206/2208 VRB03KT FM221400 VRB03KT P6SM FEW050 FM222000 19007KT P6SM FEW030 BKN200 FM230000 19007KT P6SM FEW030 BKN160 BECMG 2302/2304 VRB03KT RMK NXT FCST BY 221200Z